EST,Max TemperatureF,Mean TemperatureF,Min TemperatureF,Max Dew PointF,MeanDew PointF,Min DewpointF,Max Humidity, Mean Humidity, Min Humidity, Max Sea Level PressureIn, Mean Sea Level PressureIn, Min Sea Level PressureIn, Max VisibilityMiles, Mean VisibilityMiles, Min VisibilityMiles, Max Wind SpeedMPH, Mean Wind SpeedMPH, Max Gust SpeedMPH,PrecipitationIn, CloudCover, Events, WindDirDegrees
2013-12-1,48,34,19,33,25,17,92,69,45,30.31,30.18,30.02,10,10,10,13,2,17,0.00,7,,211
2013-12-2,50,40,29,36,33,27,96,76,56,30.01,29.92,29.85,10,10,8,7,0,9,0.00,7,,160
2013-12-3,56,42,28,38,32,26,96,73,50,29.98,29.93,29.84,10,10,8,8,1,10,0.00,4,,330
2013-12-4,64,48,31,45,37,30,96,74,52,30.07,30.00,29.94,10,9,1,9,1,14,0.00,2,,158
2013-12-5,71,53,34,56,48,23,100,77,53,30.04,29.97,29.93,10,8,1,18,4,26,0.23,6,Rain,221
2013-12-6,55,44,33,54,38,30,96,91,85,30.22,30.06,29.93,10,9,1,18,5,26,2.26,8,Rain-Snow,324
2013-12-7,33,28,22,30,25,19,92,84,75,30.56,30.41,30.15,10,9,4,12,4,15,0.01,7,Snow,330
2013-12-8,36,28,20,33,25,18,100,88,75,30.54,30.34,30.17,10,6,0,13,3,16,0.75,7,Fog-Rain-Snow,157
2013-12-9,42,38,33,40,34,27,100,88,75,30.18,30.07,30.00,10,6,2,13,4,20,0.44,8,Rain,253
2013-12-10,33,26,19,28,22,11,92,74,55,30.32,30.09,29.96,10,6,1,20,8,25,0.14,7,Snow,292
2013-12-11,35,24,13,16,13,10,92,67,41,30.44,30.35,30.27,10,10,10,18,6,31,T,3,,243
2013-12-12,28,22,16,17,7,2,73,56,39,30.50,30.40,30.25,10,10,7,21,8,31,T,4,Snow,272
2013-12-13,37,28,19,21,10,4,81,58,35,30.35,30.32,30.25,10,10,10,16,4,25,0.00,0,,224
2013-12-14,42,35,27,36,30,20,92,81,69,30.29,30.05,29.71,10,8,2,18,6,26,0.25,8,Rain-Snow,158
2013-12-15,43,35,27,38,26,19,92,81,69,30.06,29.88,29.66,10,9,2,20,10,28,0.10,8,Rain-Snow,270
2013-12-16,31,29,26,25,22,19,85,77,69,30.16,30.09,30.00,10,10,4,10,5,14,0.01,8,Rain-Snow,264
2013-12-17,40,34,28,34,30,21,92,81,70,30.09,29.99,29.90,10,9,1,20,6,26,0.30,8,Rain-Snow,256
2013-12-18,33,26,19,22,18,16,84,69,54,30.29,30.19,30.02,10,9,2,24,7,33,0.01,6,Snow,261
2013-12-19,57,38,18,31,23,15,92,60,27,30.26,30.20,30.14,10,10,10,22,4,37,0.00,0,,257
2013-12-20,60,45,29,48,36,26,92,64,36,30.14,30.08,30.01,10,10,10,14,5,22,0.01,5,Rain,178
2013-12-21,74,62,50,54,50,45,77,59,41,30.01,29.92,29.80,10,10,10,15,7,26,0.05,4,Rain,168
2013-12-22,71,61,50,55,51,48,89,71,53,30.01,29.92,29.75,10,10,5,38,7,53,0.37,5,Rain,193
2013-12-23,56,43,29,50,37,21,96,83,69,30.31,30.15,29.95,10,10,2,18,6,23,0.21,8,Rain-Snow,308
2013-12-24,29,19,8,21,15,3,81,64,47,30.54,30.34,30.21,10,7,1,20,7,31,0.02,7,Snow,291
2013-12-25,41,25,9,19,10,5,83,56,28,30.54,30.42,30.27,10,10,10,9,1,13,0.00,3,,148
2013-12-26,38,31,23,25,18,13,78,59,40,30.42,30.29,30.17,10,9,4,21,7,29,0.01,5,Snow,238
2013-12-27,44,30,16,21,15,8,88,57,25,30.46,30.43,30.39,10,10,10,15,3,23,0.00,0,,244
2013-12-28,52,36,19,27,20,16,91,60,28,30.42,30.32,30.15,10,10,10,10,2,15,0.00,0,,204
2013-12-29,45,40,34,41,36,27,100,88,75,30.12,29.86,29.65,10,9,2,17,4,31,1.04,8,Rain,250
2013-12-30,40,33,26,34,26,19,89,82,75,30.20,30.08,29.91,10,9,2,16,6,43,0.06,8,Rain-Snow,280
2013-12-31,29,23,17,21,17,14,84,71,58,30.39,30.25,30.07,10,10,6,23,7,33,T,6,Snow,247